createdAt,value
2023-03-14T00:01:23.548Z,13.70
2023-03-14T00:03:52.441Z,13.70
2023-03-14T00:06:21.901Z,13.70
2023-03-14T00:08:50.633Z,13.60
2023-03-14T00:11:22.545Z,13.60
2023-03-14T00:13:52.818Z,13.60
2023-03-14T00:16:22.527Z,13.50
2023-03-14T00:18:51.029Z,13.50
2023-03-14T00:21:20.111Z,13.50
2023-03-14T00:23:48.697Z,13.40
2023-03-14T00:26:20.553Z,13.40
2023-03-14T00:28:54.159Z,13.40
2023-03-14T00:31:22.938Z,13.40
2023-03-14T00:33:54.595Z,13.32
2023-03-14T00:36:24.769Z,13.30
2023-03-14T00:38:53.411Z,13.30
2023-03-14T00:41:25.893Z,13.30
2023-03-14T00:43:54.672Z,13.30
2023-03-14T00:46:23.505Z,13.30
2023-03-14T00:48:52.154Z,13.30
2023-03-14T00:51:20.842Z,13.30
2023-03-14T00:53:49.537Z,13.26
2023-03-14T00:56:18.214Z,13.20
2023-03-14T00:58:46.825Z,13.20
2023-03-14T01:01:19.998Z,13.20
2023-03-14T01:03:52.157Z,13.20
2023-03-14T01:06:27.406Z,13.12
2023-03-14T01:08:57.338Z,13.10
2023-03-14T01:11:32.504Z,13.10
2023-03-14T01:14:02.586Z,13.10
2023-03-14T01:16:36.722Z,13.00
2023-03-14T01:19:06.091Z,13.00
2023-03-14T01:21:36.556Z,13.00
2023-03-14T01:24:07.342Z,13.00
2023-03-14T01:26:37.189Z,13.00
2023-03-14T01:29:06.791Z,13.00
2023-03-14T01:31:37.148Z,13.00
2023-03-14T01:34:05.936Z,13.00
2023-03-14T01:36:34.787Z,13.00
2023-03-14T01:39:04.427Z,13.00
2023-03-14T01:41:33.799Z,13.00
2023-03-14T01:44:02.390Z,12.90
2023-03-14T01:46:43.312Z,12.90
2023-03-14T01:49:23.828Z,12.90
2023-03-14T01:52:13.305Z,12.90
2023-03-14T01:55:17.928Z,12.90
2023-03-14T01:57:54.296Z,12.90
2023-03-14T02:00:24.934Z,12.90
2023-03-14T02:03:00.129Z,12.90
2023-03-14T02:05:39.093Z,12.90
2023-03-14T02:08:25.606Z,12.90
2023-03-14T02:11:01.659Z,12.90
2023-03-14T02:13:54.823Z,12.90
2023-03-14T02:16:42.293Z,12.90
2023-03-14T02:19:52.300Z,12.90
2023-03-14T02:22:41.762Z,12.90
2023-03-14T02:25:32.983Z,12.90
2023-03-14T02:28:03.302Z,12.90
2023-03-14T02:30:34.738Z,12.90
2023-03-14T02:33:20.133Z,12.82
2023-03-14T02:36:10.967Z,12.80
2023-03-14T02:38:59.699Z,12.80
2023-03-14T02:41:30.761Z,12.80
2023-03-14T02:44:03.448Z,12.80
2023-03-14T02:46:32.722Z,12.74
2023-03-14T02:49:13.614Z,12.70
2023-03-14T02:51:44.327Z,12.70
2023-03-14T02:54:16.858Z,12.62
2023-03-14T02:56:45.900Z,12.60
2023-03-14T02:59:15.305Z,12.60
2023-03-14T03:01:48.292Z,12.58
2023-03-14T03:04:17.090Z,12.50
2023-03-14T03:06:48.532Z,12.50
2023-03-14T03:09:17.843Z,12.50
2023-03-14T03:11:46.734Z,12.50
2023-03-14T03:14:19.496Z,12.40
2023-03-14T03:16:48.204Z,12.40
2023-03-14T03:19:18.939Z,12.40
2023-03-14T03:21:47.620Z,12.40
2023-03-14T03:24:16.884Z,12.40
2023-03-14T03:26:46.026Z,12.38
2023-03-14T03:29:14.607Z,12.30
2023-03-14T03:31:43.497Z,12.30
2023-03-14T03:34:14.334Z,12.30
2023-03-14T03:36:43.540Z,12.20
2023-03-14T03:39:13.983Z,12.20
2023-03-14T03:41:42.755Z,12.20
2023-03-14T03:44:14.001Z,12.20
2023-03-14T03:46:42.789Z,12.20
2023-03-14T03:49:11.683Z,12.20
2023-03-14T03:51:42.315Z,12.16
2023-03-14T03:54:11.410Z,12.16
2023-03-14T03:56:40.722Z,12.10
2023-03-14T03:59:09.716Z,12.10
2023-03-14T04:01:38.391Z,12.10
2023-03-14T04:04:07.616Z,12.10
2023-03-14T04:06:38.548Z,12.10
2023-03-14T04:09:07.630Z,12.04
2023-03-14T04:11:52.652Z,12.00
2023-03-14T04:14:24.560Z,12.00
2023-03-14T04:17:04.409Z,12.00
2023-03-14T04:19:33.098Z,12.00
2023-03-14T04:22:01.785Z,12.00
2023-03-14T04:24:36.106Z,11.96
2023-03-14T04:27:04.794Z,11.96
2023-03-14T04:29:34.397Z,11.92
2023-03-14T04:32:03.290Z,11.90
2023-03-14T04:34:31.881Z,11.90
2023-03-14T04:37:00.356Z,11.90
2023-03-14T04:39:35.695Z,11.90
2023-03-14T04:42:17.902Z,11.90
2023-03-14T04:44:48.123Z,11.90
2023-03-14T04:47:17.731Z,11.90
2023-03-14T04:49:48.163Z,11.90
2023-03-14T04:52:17.775Z,11.90
2023-03-14T04:54:46.663Z,11.90
2023-03-14T04:57:15.668Z,11.90
2023-03-14T04:59:45.282Z,11.90
2023-03-14T05:02:38.818Z,11.90
2023-03-14T05:05:22.877Z,11.90
2023-03-14T05:08:12.670Z,11.90
2023-03-14T05:10:58.125Z,11.90
2023-03-14T05:13:55.809Z,11.90
2023-03-14T05:16:37.573Z,11.90
2023-03-14T05:19:34.889Z,11.90
2023-03-14T05:22:13.578Z,11.90
2023-03-14T05:25:09.256Z,11.90
2023-03-14T05:27:57.131Z,11.90
2023-03-14T05:30:55.209Z,11.90
2023-03-14T05:33:33.009Z,11.90
2023-03-14T05:36:14.086Z,11.98
2023-03-14T05:39:02.337Z,12.00
2023-03-14T05:41:42.189Z,11.98
2023-03-14T05:44:40.113Z,11.90
2023-03-14T05:47:27.614Z,11.90
2023-03-14T05:50:20.543Z,11.90
2023-03-14T05:53:11.140Z,11.90
2023-03-14T05:55:58.049Z,11.90
2023-03-14T05:58:39.989Z,11.90
2023-03-14T06:01:20.822Z,11.94
2023-03-14T06:04:03.641Z,11.96
2023-03-14T06:06:32.736Z,12.00
2023-03-14T06:09:02.857Z,12.00
2023-03-14T06:11:32.980Z,12.00
2023-03-14T06:14:01.996Z,12.00
2023-03-14T06:16:30.923Z,12.00
2023-03-14T06:18:59.650Z,12.00
2023-03-14T06:21:28.524Z,12.10
2023-03-14T06:23:57.440Z,12.10
2023-03-14T06:26:27.141Z,12.10
2023-03-14T06:28:55.726Z,12.10
2023-03-14T06:31:24.520Z,12.12
2023-03-14T06:33:58.025Z,12.20
2023-03-14T06:36:29.782Z,12.20
2023-03-14T06:38:59.083Z,12.20
2023-03-14T06:41:28.392Z,12.28
2023-03-14T06:43:57.173Z,12.30
2023-03-14T06:46:26.593Z,12.40
2023-03-14T06:48:55.627Z,12.48
2023-03-14T06:51:24.461Z,12.50
2023-03-14T06:53:53.236Z,12.50
2023-03-14T06:56:23.576Z,12.50
2023-03-14T06:58:52.511Z,12.50
2023-03-14T07:01:29.819Z,12.60
2023-03-14T07:04:05.129Z,12.60
2023-03-14T07:06:36.352Z,12.60
2023-03-14T07:09:07.448Z,12.70
2023-03-14T07:11:38.532Z,12.80
2023-03-14T07:14:07.486Z,13.12
2023-03-14T07:16:36.726Z,13.66
2023-03-14T07:19:05.635Z,14.96
2023-03-14T07:21:36.193Z,16.16
2023-03-14T07:24:09.624Z,17.06
2023-03-14T07:26:38.638Z,17.10
2023-03-14T07:29:08.632Z,17.06
2023-03-14T07:31:37.351Z,16.92
2023-03-14T07:34:08.796Z,17.54
2023-03-14T07:36:41.072Z,18.48
2023-03-14T07:39:10.779Z,19.36
2023-03-14T07:42:00.358Z,19.66
2023-03-14T07:44:48.221Z,20.40
2023-03-14T07:47:17.501Z,21.10
2023-03-14T07:49:46.696Z,20.94
2023-03-14T07:52:15.686Z,21.00
2023-03-14T07:54:44.784Z,20.90
2023-03-14T07:57:13.579Z,20.72
2023-03-14T07:59:43.172Z,20.50
2023-03-14T08:02:14.247Z,19.94
2023-03-14T08:04:43.852Z,19.38
2023-03-14T08:07:12.626Z,18.80
2023-03-14T08:09:41.311Z,18.18
2023-03-14T08:12:09.892Z,17.70
2023-03-14T08:14:38.789Z,17.28
2023-03-14T08:17:09.458Z,16.90
2023-03-14T08:19:38.103Z,16.60
2023-03-14T08:22:06.792Z,16.30
2023-03-14T08:24:35.889Z,16.06
2023-03-14T08:27:04.578Z,15.90
2023-03-14T08:29:33.262Z,15.70
2023-03-14T08:32:01.864Z,15.60
2023-03-14T08:34:30.537Z,15.60
2023-03-14T08:36:59.116Z,15.50
2023-03-14T08:39:27.754Z,15.50
2023-03-14T08:41:56.390Z,15.40
2023-03-14T08:44:25.205Z,15.40
2023-03-14T08:46:54.229Z,15.40
2023-03-14T08:49:23.186Z,15.40
2023-03-14T08:51:51.868Z,15.50
2023-03-14T08:54:20.663Z,15.50
2023-03-14T08:56:49.435Z,15.50
2023-03-14T08:59:19.449Z,15.52
2023-03-14T09:01:48.030Z,15.60
2023-03-14T09:04:17.073Z,15.60
2023-03-14T09:06:45.917Z,15.64
2023-03-14T09:09:15.073Z,15.70
2023-03-14T09:11:43.617Z,15.80
2023-03-14T09:14:12.422Z,15.96
2023-03-14T09:16:41.118Z,16.20
2023-03-14T09:19:09.968Z,16.40
2023-03-14T09:21:40.325Z,16.60
2023-03-14T09:24:09.039Z,16.70
2023-03-14T09:26:37.979Z,16.70
2023-03-14T09:29:06.772Z,16.80
2023-03-14T09:31:35.473Z,16.90
2023-03-14T09:34:04.034Z,17.16
2023-03-14T09:36:32.951Z,17.40
2023-03-14T09:39:01.832Z,17.40
2023-03-14T09:41:38.314Z,17.20
2023-03-14T09:44:23.180Z,17.02
2023-03-14T09:46:59.926Z,17.00
2023-03-14T09:49:36.071Z,16.80
2023-03-14T09:52:32.624Z,16.50
2023-03-14T09:55:08.006Z,16.66
2023-03-14T09:57:37.707Z,17.70
2023-03-14T10:00:18.163Z,18.30
2023-03-14T10:03:26.638Z,17.94
2023-03-14T10:05:56.685Z,17.60
2023-03-14T10:08:25.963Z,18.40
2023-03-14T10:10:55.908Z,18.86
2023-03-14T10:13:29.093Z,18.86
2023-03-14T10:16:02.958Z,18.70
2023-03-14T10:18:35.402Z,18.46
2023-03-14T10:21:23.202Z,18.06
2023-03-14T10:23:51.689Z,17.72
2023-03-14T10:26:28.774Z,17.60
2023-03-14T10:29:23.797Z,17.60
2023-03-14T10:32:02.133Z,17.64
2023-03-14T10:34:36.980Z,17.80
2023-03-14T10:37:22.917Z,17.80
2023-03-14T10:39:59.679Z,17.90
2023-03-14T10:42:35.953Z,17.90
2023-03-14T10:45:23.698Z,18.10
2023-03-14T10:47:53.210Z,18.20
2023-03-14T10:50:24.863Z,18.50
2023-03-14T10:53:03.638Z,18.50
2023-03-14T10:55:46.242Z,18.30
2023-03-14T10:58:28.413Z,18.00
2023-03-14T11:01:15.217Z,17.70
2023-03-14T11:03:58.024Z,17.40
2023-03-14T11:07:01.425Z,17.30
2023-03-14T11:10:03.817Z,17.12
2023-03-14T11:13:20.083Z,16.98
2023-03-14T11:16:24.226Z,16.80
2023-03-14T11:19:18.941Z,16.60
2023-03-14T11:22:25.296Z,16.50
2023-03-14T11:25:21.525Z,16.32
2023-03-14T11:28:16.324Z,16.20
2023-03-14T11:30:58.201Z,16.10
2023-03-14T11:34:02.338Z,16.00
2023-03-14T11:36:36.355Z,16.10
2023-03-14T11:39:12.510Z,16.30
2023-03-14T11:41:46.712Z,16.48
2023-03-14T11:44:50.032Z,16.50
2023-03-14T11:47:41.035Z,16.40
2023-03-14T11:50:31.123Z,16.20
2023-03-14T11:53:39.751Z,16.16
2023-03-14T11:56:29.019Z,16.10
2023-03-14T11:59:04.136Z,16.10
2023-03-14T12:02:05.586Z,16.10
2023-03-14T12:05:04.104Z,16.00
2023-03-14T12:08:00.030Z,16.00
2023-03-14T12:10:29.117Z,15.84
2023-03-14T12:12:59.639Z,15.70
2023-03-14T12:15:29.461Z,15.60
2023-03-14T12:17:58.246Z,15.48
2023-03-14T12:20:27.756Z,15.36
2023-03-14T12:23:13.504Z,15.30
2023-03-14T12:25:42.024Z,15.40
2023-03-14T12:28:32.788Z,15.50
2023-03-14T12:31:32.770Z,15.60
2023-03-14T12:34:10.444Z,15.70
2023-03-14T12:36:51.233Z,15.80
2023-03-14T12:39:25.847Z,15.80
2023-03-14T12:42:03.436Z,15.80
2023-03-14T12:44:31.933Z,15.80
2023-03-14T12:47:20.995Z,15.80
2023-03-14T12:49:58.580Z,15.92
2023-03-14T12:53:18.846Z,16.10
2023-03-14T12:56:00.704Z,16.40
2023-03-14T12:58:34.890Z,16.70
2023-03-14T13:01:08.743Z,16.80
2023-03-14T13:03:55.272Z,16.70
2023-03-14T13:06:55.525Z,16.60
2023-03-14T13:09:55.971Z,16.40
2023-03-14T13:12:31.436Z,16.20
2023-03-14T13:15:02.008Z,16.02
2023-03-14T13:17:37.216Z,15.80
2023-03-14T13:20:33.521Z,15.64
2023-03-14T13:23:02.099Z,15.40
2023-03-14T13:25:35.115Z,15.28
2023-03-14T13:28:04.889Z,15.10
2023-03-14T13:30:46.275Z,14.90
2023-03-14T13:33:24.333Z,14.80
2023-03-14T13:36:06.737Z,14.90
2023-03-14T13:38:37.477Z,15.02
2023-03-14T13:41:09.190Z,15.20
2023-03-14T13:43:42.380Z,15.38
2023-03-14T13:46:22.263Z,15.50
2023-03-14T13:48:57.416Z,15.54
2023-03-14T13:51:29.024Z,15.60
2023-03-14T13:53:57.659Z,15.70
2023-03-14T13:56:31.351Z,15.70
2023-03-14T13:59:00.114Z,15.66
2023-03-14T14:01:35.209Z,15.70
2023-03-14T14:04:17.678Z,15.76
2023-03-14T14:06:53.807Z,15.80
2023-03-14T14:09:28.290Z,15.80
2023-03-14T14:12:15.933Z,15.80
2023-03-14T14:14:50.725Z,15.80
2023-03-14T14:17:29.426Z,15.80
2023-03-14T14:19:58.641Z,15.80
2023-03-14T14:22:28.467Z,15.80
2023-03-14T14:24:58.655Z,15.72
2023-03-14T14:27:40.423Z,15.76
2023-03-14T14:30:18.463Z,15.80
2023-03-14T14:32:49.972Z,15.70
2023-03-14T14:35:34.004Z,15.70
2023-03-14T14:38:10.117Z,15.70
2023-03-14T14:40:46.804Z,15.70
2023-03-14T14:43:27.332Z,15.60
2023-03-14T14:45:59.143Z,15.50
2023-03-14T14:48:29.334Z,15.40
2023-03-14T14:51:03.968Z,15.38
2023-03-14T14:53:41.523Z,15.30
2023-03-14T14:56:26.591Z,15.40
2023-03-14T14:59:04.784Z,15.46
2023-03-14T15:01:43.533Z,15.50
2023-03-14T15:04:16.344Z,15.60
2023-03-14T15:06:49.454Z,15.60
2023-03-14T15:09:21.572Z,15.50
2023-03-14T15:11:51.620Z,15.50
2023-03-14T15:14:20.682Z,15.44
2023-03-14T15:16:49.159Z,15.40
2023-03-14T15:19:27.206Z,15.40
2023-03-14T15:21:55.878Z,15.40
2023-03-14T15:24:24.385Z,15.30
2023-03-14T15:26:52.961Z,15.30
2023-03-14T15:29:21.552Z,15.20
2023-03-14T15:31:51.145Z,15.20
2023-03-14T15:34:19.736Z,15.10
2023-03-14T15:36:48.217Z,15.00
2023-03-14T15:39:16.905Z,14.90
2023-03-14T15:41:45.492Z,14.90
2023-03-14T15:44:14.584Z,14.80
2023-03-14T15:46:43.178Z,14.80
2023-03-14T15:49:11.862Z,14.90
2023-03-14T15:51:40.345Z,14.90
2023-03-14T15:54:08.925Z,15.00
2023-03-14T15:56:39.995Z,15.00
2023-03-14T15:59:09.262Z,15.00
2023-03-14T16:01:38.229Z,14.92
2023-03-14T16:04:07.586Z,14.90
2023-03-14T16:06:37.589Z,14.80
2023-03-14T16:09:06.217Z,14.80
2023-03-14T16:11:34.855Z,14.70
2023-03-14T16:14:03.539Z,14.62
2023-03-14T16:16:32.240Z,14.60
2023-03-14T16:19:01.012Z,14.50
2023-03-14T16:21:30.621Z,14.40
2023-03-14T16:24:03.298Z,14.30
2023-03-14T16:26:34.953Z,14.20
2023-03-14T16:29:04.071Z,14.14
2023-03-14T16:31:33.533Z,14.10
2023-03-14T16:34:04.189Z,14.00
2023-03-14T16:36:32.673Z,13.90
2023-03-14T16:39:01.257Z,13.90
2023-03-14T16:41:31.828Z,13.80
2023-03-14T16:44:02.018Z,13.80
2023-03-14T16:46:30.885Z,13.72
2023-03-14T16:49:00.313Z,13.70
2023-03-14T16:51:29.297Z,13.70
2023-03-14T16:53:58.328Z,13.68
2023-03-14T16:56:27.092Z,13.60
2023-03-14T16:58:55.873Z,13.60
2023-03-14T17:01:24.876Z,13.60
2023-03-14T17:03:54.021Z,13.60
2023-03-14T17:06:28.434Z,13.60
2023-03-14T17:08:58.327Z,12.96
2023-03-14T17:11:27.700Z,11.88
2023-03-14T17:13:56.187Z,10.98
2023-03-14T17:16:24.971Z,9.98
2023-03-14T17:18:54.304Z,9.38
2023-03-14T17:21:23.993Z,8.98
2023-03-14T17:23:52.571Z,8.50
2023-03-14T17:26:21.667Z,8.10
2023-03-14T17:28:50.352Z,7.80
2023-03-14T17:31:20.958Z,7.56
2023-03-14T17:33:52.069Z,7.30
2023-03-14T17:36:23.990Z,7.10
2023-03-14T17:38:56.311Z,6.98
2023-03-14T17:41:26.078Z,6.80
2023-03-14T17:43:54.766Z,6.50
2023-03-14T17:46:23.470Z,6.30
2023-03-14T17:48:52.041Z,6.10
2023-03-14T17:51:20.617Z,5.80
2023-03-14T17:53:49.312Z,5.58
2023-03-14T17:56:18.050Z,5.50
2023-03-14T17:58:46.796Z,5.40
2023-03-14T18:01:18.937Z,5.20
2023-03-14T18:03:48.296Z,5.06
2023-03-14T18:06:18.482Z,5.00
2023-03-14T18:08:47.602Z,4.90
2023-03-14T18:11:17.657Z,4.80
2023-03-14T18:13:46.483Z,4.70
2023-03-14T18:16:16.277Z,4.70
2023-03-14T18:18:53.791Z,4.58
2023-03-14T18:21:22.785Z,4.50
2023-03-14T18:23:51.882Z,4.40
2023-03-14T18:26:21.798Z,4.24
2023-03-14T18:28:50.835Z,4.16
2023-03-14T18:31:22.700Z,4.08
2023-03-14T18:33:58.144Z,4.00
2023-03-14T18:36:27.299Z,4.00
2023-03-14T18:38:57.045Z,4.00
2023-03-14T18:41:27.077Z,4.10
2023-03-14T18:43:55.740Z,4.10
2023-03-14T18:46:24.535Z,4.00
2023-03-14T18:48:57.165Z,4.00
2023-03-14T18:51:29.182Z,3.90
2023-03-14T18:54:08.874Z,3.92
2023-03-14T18:56:42.863Z,3.90
2023-03-14T18:59:12.942Z,3.90
2023-03-14T19:01:43.410Z,3.90
2023-03-14T19:04:12.353Z,3.90
2023-03-14T19:06:41.944Z,3.90
2023-03-14T19:09:15.838Z,3.90
2023-03-14T19:11:44.487Z,3.90
2023-03-14T19:14:16.248Z,3.90
2023-03-14T19:16:45.239Z,3.90
2023-03-14T19:19:14.199Z,4.00
2023-03-14T19:21:42.974Z,4.00
2023-03-14T19:24:17.466Z,4.00
2023-03-14T19:26:46.388Z,4.10
2023-03-14T19:29:16.428Z,4.10
2023-03-14T19:31:45.082Z,4.12
2023-03-14T19:34:13.888Z,4.20
2023-03-14T19:36:42.477Z,4.20
2023-03-14T19:39:11.155Z,4.30
2023-03-14T19:41:40.148Z,4.30
2023-03-14T19:44:08.849Z,4.32
2023-03-14T19:46:37.626Z,4.40
2023-03-14T19:49:06.356Z,4.40
2023-03-14T19:51:35.924Z,4.50
2023-03-14T19:54:05.362Z,4.50
2023-03-14T19:56:34.621Z,4.50
2023-03-14T19:59:03.702Z,4.50
2023-03-14T20:01:33.075Z,4.50
2023-03-14T20:04:05.306Z,4.58
2023-03-14T20:06:34.854Z,4.60
2023-03-14T20:09:06.429Z,4.60
2023-03-14T20:11:40.477Z,4.60
2023-03-14T20:14:10.402Z,4.70
2023-03-14T20:16:39.518Z,4.68
2023-03-14T20:19:11.464Z,4.70
2023-03-14T20:21:40.648Z,4.70
2023-03-14T20:24:09.955Z,4.70
2023-03-14T20:26:38.841Z,4.70
2023-03-14T20:29:07.740Z,4.70
2023-03-14T20:31:38.321Z,4.70
2023-03-14T20:34:07.078Z,4.70
2023-03-14T20:36:36.063Z,4.70
2023-03-14T20:39:05.984Z,4.70
2023-03-14T20:41:42.286Z,4.70
2023-03-14T20:44:13.599Z,4.70
2023-03-14T20:46:42.863Z,4.70
2023-03-14T20:49:11.826Z,4.70
2023-03-14T20:51:40.863Z,4.70
2023-03-14T20:54:14.376Z,4.70
2023-03-14T20:56:46.462Z,4.78
2023-03-14T20:59:15.659Z,4.80
2023-03-14T21:04:34.242Z,4.74
2023-03-14T21:07:03.093Z,4.76
2023-03-14T21:09:32.102Z,4.80
2023-03-14T21:12:01.101Z,4.72
2023-03-14T21:14:29.978Z,4.70
2023-03-14T21:17:00.444Z,4.74
2023-03-14T21:19:31.753Z,4.78
2023-03-14T21:22:02.522Z,4.74
2023-03-14T21:24:31.886Z,4.80
2023-03-14T21:27:00.983Z,4.80
2023-03-14T21:29:29.568Z,4.80
2023-03-14T21:31:58.665Z,4.80
2023-03-14T21:34:28.296Z,4.80
2023-03-14T21:36:57.473Z,4.80
2023-03-14T21:39:26.162Z,4.80
2023-03-14T21:41:55.460Z,4.80
2023-03-14T21:44:25.176Z,4.80
2023-03-14T21:46:54.108Z,4.80
2023-03-14T21:49:22.674Z,4.80
2023-03-14T21:51:53.074Z,4.80
2023-03-14T21:54:21.759Z,4.80
2023-03-14T21:56:50.870Z,4.70
2023-03-14T21:59:19.773Z,4.70
2023-03-14T22:01:49.052Z,4.70
2023-03-14T22:04:17.834Z,4.70
2023-03-14T22:06:46.646Z,4.70
2023-03-14T22:09:16.437Z,4.70
2023-03-14T22:11:45.224Z,4.70
2023-03-14T22:14:14.267Z,4.70
2023-03-14T22:16:42.990Z,4.70
2023-03-14T22:19:11.850Z,4.70
2023-03-14T22:21:40.591Z,4.60
2023-03-14T22:24:10.203Z,4.60
2023-03-14T22:26:39.705Z,4.58
2023-03-14T22:29:08.867Z,4.50
2023-03-14T22:31:37.796Z,4.50
2023-03-14T22:34:06.453Z,4.42
2023-03-14T22:36:35.263Z,4.40
2023-03-14T22:39:06.737Z,4.40
2023-03-14T22:41:36.536Z,4.40
2023-03-14T22:44:05.762Z,4.32
2023-03-14T22:46:34.636Z,4.30
2023-03-14T22:49:03.509Z,4.30
2023-03-14T22:51:32.814Z,4.30
2023-03-14T22:54:01.473Z,4.30
2023-03-14T22:56:30.294Z,4.30
2023-03-14T22:59:00.923Z,4.22
2023-03-14T23:01:29.458Z,4.20
2023-03-14T23:03:59.016Z,4.20
2023-03-14T23:06:27.908Z,4.20
2023-03-14T23:08:57.432Z,4.20
2023-03-14T23:11:29.266Z,4.20
2023-03-14T23:13:58.289Z,4.20
2023-03-14T23:16:37.620Z,4.18
2023-03-14T23:19:10.914Z,4.10
2023-03-14T23:21:40.013Z,4.10
2023-03-14T23:24:09.377Z,4.10
2023-03-14T23:26:38.095Z,4.06
2023-03-14T23:29:07.294Z,4.04
2023-03-14T23:31:35.936Z,4.00
2023-03-14T23:34:04.919Z,4.04
2023-03-14T23:36:37.964Z,4.10
2023-03-14T23:39:08.945Z,4.10
2023-03-14T23:41:37.912Z,4.00
2023-03-14T23:44:07.505Z,4.00
2023-03-14T23:46:36.406Z,4.00
2023-03-14T23:49:05.497Z,4.00
2023-03-14T23:51:34.701Z,3.98
2023-03-14T23:54:04.354Z,3.90
2023-03-14T23:56:33.082Z,3.90
2023-03-14T23:59:02.045Z,3.90
